Bolton, Canada
Current Conditions -  °F | °C
As of 8:00 AM on Saturday 20 Dec 2014 (Local Time) from CYYZ Reporting Station
Broken Clouds Broken Clouds  
Wind Chill: 14°   Ceiling: 25000
Heat Index: 21°   Visibility: 15mi
Dew Point: 19°   Wind: 6mph
Humidity: 93%   Direction: 20°NNE
Pressure: 30.3"   Gusts: NA
Location:  43.88°N, 79.73°W
Report Text: CYYZ 201300Z 02005KT 15SM SCT080 BKN250 M06/M07 A3030 RMK AC3CI2 SLP269
Loading
Personal Weather Stations






























Interactive Weather Map New forecast layout! Learn more

10-Day Weather Forecast

Advertisements
Track Severe Weather on mobile